createdAt,value
2023-04-16T04:20:34.705Z,6.40
2023-04-16T06:28:18.603Z,6.10
2023-04-16T06:30:46.789Z,5.90
2023-04-16T06:35:41.177Z,6.10
2023-04-16T06:38:07.926Z,6.10
2023-04-16T06:40:36.936Z,6.20
2023-04-16T06:43:05.977Z,6.20
2023-04-16T06:45:32.729Z,6.10
2023-04-16T06:47:59.546Z,6.10
2023-04-16T06:50:26.859Z,6.10
2023-04-16T06:52:53.955Z,6.00
2023-04-16T06:55:20.848Z,6.10
2023-04-16T06:57:47.586Z,6.00
2023-04-16T07:00:14.652Z,6.00
2023-04-16T07:02:41.473Z,6.00
2023-04-16T07:05:09.040Z,6.00
2023-04-16T07:07:35.764Z,5.90
2023-04-16T07:10:02.485Z,6.00
2023-04-16T07:12:29.304Z,5.90
2023-04-16T07:14:56.585Z,6.00
2023-04-16T07:17:23.310Z,6.00
2023-04-16T07:19:51.721Z,6.10
2023-04-16T07:22:18.403Z,6.00
2023-04-16T07:24:45.349Z,5.90
2023-04-16T07:27:13.049Z,6.00
2023-04-16T07:29:39.929Z,6.10
2023-04-16T07:32:07.552Z,6.00
2023-04-16T07:34:34.331Z,6.00
2023-04-16T07:37:01.202Z,6.20
2023-04-16T07:39:27.903Z,6.10
2023-04-16T07:41:54.831Z,6.10
2023-04-16T07:44:21.622Z,6.10
2023-04-16T07:46:48.400Z,6.00
2023-04-16T07:49:15.556Z,6.00
2023-04-16T07:51:42.575Z,6.00
2023-04-16T07:54:10.230Z,5.90
2023-04-16T07:56:36.939Z,5.90
2023-04-16T07:59:18.367Z,5.90
2023-04-16T08:01:49.564Z,5.90
2023-04-16T08:04:20.647Z,5.80
2023-04-16T08:06:47.422Z,5.80
2023-04-16T08:09:14.148Z,5.80
2023-04-16T08:11:41.070Z,5.90
2023-04-16T08:14:08.222Z,5.90
2023-04-16T08:16:34.926Z,5.80
2023-04-16T08:19:01.655Z,5.80
2023-04-16T08:21:29.244Z,5.80
2023-04-16T08:23:56.266Z,5.80
2023-04-16T08:26:23.000Z,5.80
2023-04-16T08:28:49.738Z,5.80
2023-04-16T08:31:16.827Z,5.80
2023-04-16T08:33:43.781Z,5.80
2023-04-16T08:36:10.816Z,5.80
2023-04-16T08:38:37.553Z,5.80
2023-04-16T08:41:09.237Z,5.80
2023-04-16T08:43:39.390Z,5.90
2023-04-16T08:46:06.702Z,5.90
2023-04-16T08:48:34.988Z,5.90
2023-04-16T08:51:02.740Z,6.00
2023-04-16T08:53:43.080Z,6.00
2023-04-16T08:56:11.726Z,6.00
2023-04-16T08:58:40.238Z,6.00
2023-04-16T09:01:09.286Z,6.00
2023-04-16T09:03:36.961Z,6.00
2023-04-16T09:06:06.155Z,6.00
2023-04-16T09:08:35.687Z,6.00
2023-04-16T09:11:03.194Z,6.00
2023-04-16T09:13:31.764Z,6.00
2023-04-16T09:15:58.558Z,6.00
2023-04-16T09:18:25.667Z,6.00
2023-04-16T09:20:52.890Z,6.00
2023-04-16T09:23:19.648Z,6.10
2023-04-16T09:25:46.469Z,6.10
2023-04-16T09:28:13.220Z,6.10
2023-04-16T09:30:39.992Z,6.10
2023-04-16T09:33:23.459Z,6.10
2023-04-16T09:35:52.736Z,6.00
2023-04-16T09:38:20.673Z,6.10
2023-04-16T09:40:47.620Z,6.10
2023-04-16T09:43:17.203Z,6.10
2023-04-16T09:45:55.095Z,6.10
2023-04-16T09:48:33.368Z,6.10
2023-04-16T09:51:01.337Z,6.10
2023-04-16T09:53:30.970Z,6.10
2023-04-16T09:55:59.824Z,6.20
2023-04-16T09:58:27.081Z,6.20
2023-04-16T10:01:08.715Z,6.20
2023-04-16T10:03:38.288Z,6.20
2023-04-16T10:06:18.436Z,6.20
2023-04-16T10:08:50.394Z,6.20
2023-04-16T10:11:21.321Z,6.30
2023-04-16T10:13:49.093Z,6.30
2023-04-16T10:16:17.899Z,6.30
2023-04-16T10:18:46.408Z,6.30
2023-04-16T10:21:13.857Z,6.20
2023-04-16T10:23:41.907Z,6.20
2023-04-16T10:26:09.491Z,6.20
2023-04-16T10:28:37.047Z,6.20
2023-04-16T10:31:07.523Z,6.20
2023-04-16T10:33:39.286Z,6.20
2023-04-16T10:36:23.192Z,6.20
2023-04-16T10:38:52.467Z,6.20
2023-04-16T10:41:22.468Z,6.20
2023-04-16T10:43:50.950Z,6.20
2023-04-16T10:46:32.792Z,6.20
2023-04-16T10:49:19.109Z,6.20
2023-04-16T10:51:57.165Z,6.20
2023-04-16T10:54:30.068Z,6.20
2023-04-16T10:57:04.908Z,6.20
2023-04-16T10:59:35.250Z,6.20
2023-04-16T11:02:16.024Z,6.20
2023-04-16T11:04:48.326Z,6.20
2023-04-16T11:07:20.982Z,6.20
2023-04-16T11:10:04.291Z,6.20
2023-04-16T11:12:46.458Z,6.20
2023-04-16T11:15:21.349Z,6.20
2023-04-16T11:17:51.614Z,6.30
2023-04-16T11:20:24.727Z,6.30
2023-04-16T11:22:56.800Z,6.30
2023-04-16T11:25:30.625Z,6.30
2023-04-16T11:27:59.148Z,6.40
2023-04-16T11:30:34.823Z,6.40
2023-04-16T11:33:11.142Z,6.40
2023-04-16T11:35:41.516Z,6.40
2023-04-16T11:38:08.700Z,6.40
2023-04-16T11:40:36.303Z,6.40
2023-04-16T11:43:14.802Z,6.40
2023-04-16T11:46:12.880Z,6.50
2023-04-16T11:48:52.173Z,6.50
2023-04-16T11:51:20.584Z,6.50
2023-04-16T11:53:53.119Z,6.50
2023-04-16T11:56:34.410Z,6.50
2023-04-16T11:59:11.784Z,6.50
2023-04-16T12:01:42.230Z,6.50
2023-04-16T12:04:09.746Z,6.50
2023-04-16T12:06:36.788Z,6.50
2023-04-16T12:09:26.015Z,6.50
2023-04-16T12:11:53.563Z,6.50
2023-04-16T12:14:20.893Z,6.60
2023-04-16T12:16:48.097Z,6.60
2023-04-16T12:19:16.085Z,6.60
2023-04-16T12:21:46.819Z,6.60
2023-04-16T12:24:16.917Z,6.60
2023-04-16T12:26:51.936Z,6.60
2023-04-16T12:29:24.645Z,6.60
2023-04-16T12:31:53.808Z,6.60
2023-04-16T12:34:21.796Z,6.60
2023-04-16T12:37:12.217Z,6.60
2023-04-16T12:39:39.096Z,6.60
2023-04-16T12:42:09.713Z,6.60
2023-04-16T12:44:36.698Z,6.50
2023-04-16T12:47:05.412Z,6.50
2023-04-16T12:49:32.445Z,6.50
2023-04-16T12:51:59.185Z,6.50
2023-04-16T12:54:29.029Z,6.50
2023-04-16T12:56:55.733Z,6.50
2023-04-16T12:59:23.442Z,6.50
2023-04-16T13:01:50.611Z,6.50
2023-04-16T13:04:19.136Z,6.50
2023-04-16T13:06:46.336Z,6.50
2023-04-16T13:09:13.424Z,6.50
2023-04-16T13:11:40.245Z,6.50
2023-04-16T13:14:07.454Z,6.50
2023-04-16T13:16:34.254Z,6.50
2023-04-16T13:19:01.340Z,6.50
2023-04-16T13:21:28.266Z,6.50
2023-04-16T13:23:55.192Z,6.60
2023-04-16T13:26:22.022Z,6.60
2023-04-16T13:28:48.781Z,6.60
2023-04-16T13:31:18.552Z,6.60
2023-04-16T13:33:45.364Z,6.60
2023-04-16T13:36:12.526Z,6.60
2023-04-16T13:38:39.526Z,6.60
2023-04-16T13:41:06.435Z,6.60
2023-04-16T13:43:33.167Z,6.60
2023-04-16T13:46:00.947Z,6.60
2023-04-16T13:48:28.640Z,6.70
2023-04-16T13:50:56.085Z,6.70
2023-04-16T13:53:22.913Z,6.70
2023-04-16T13:55:49.896Z,6.70
2023-04-16T13:58:16.752Z,6.70
2023-04-16T14:00:43.804Z,6.70
2023-04-16T14:03:10.754Z,6.70
2023-04-16T14:05:37.536Z,6.70
2023-04-16T14:08:04.295Z,6.70
2023-04-16T14:10:31.974Z,6.60
2023-04-16T14:12:58.886Z,6.70
2023-04-16T14:15:27.416Z,6.70
2023-04-16T14:17:54.254Z,6.70
2023-04-16T14:20:21.358Z,6.70
2023-04-16T14:22:48.087Z,6.70
2023-04-16T14:25:14.952Z,6.80
2023-04-16T14:27:41.731Z,6.70
2023-04-16T14:30:09.201Z,6.70
2023-04-16T14:32:36.649Z,6.70
2023-04-16T14:35:04.180Z,6.70
2023-04-16T14:37:31.208Z,6.70
2023-04-16T14:39:58.040Z,6.70
2023-04-16T14:42:24.869Z,6.70
2023-04-16T14:44:52.484Z,6.80
2023-04-16T14:47:19.325Z,6.70
2023-04-16T14:49:46.420Z,6.70
2023-04-16T14:52:13.277Z,6.70
2023-04-16T14:54:40.033Z,6.70
2023-04-16T14:57:06.814Z,6.70
2023-04-16T14:59:33.664Z,6.80
2023-04-16T15:02:00.975Z,6.80
2023-04-16T15:04:28.100Z,6.80
2023-04-16T15:06:58.767Z,6.70
2023-04-16T15:09:27.381Z,6.70
2023-04-16T15:11:54.516Z,6.70
2023-04-16T15:14:21.783Z,6.80
2023-04-16T15:16:48.679Z,6.70
2023-04-16T15:19:15.596Z,6.70
2023-04-16T15:21:42.379Z,6.80
2023-04-16T15:24:09.292Z,6.80
2023-04-16T15:26:36.621Z,6.80
2023-04-16T15:29:03.506Z,6.80
2023-04-16T15:31:30.690Z,6.70
2023-04-16T15:33:57.601Z,6.80
2023-04-16T15:36:24.334Z,6.80
2023-04-16T15:38:51.185Z,6.80
2023-04-16T15:41:18.034Z,6.80
2023-04-16T15:43:45.054Z,6.70
2023-04-16T15:46:11.847Z,6.80
2023-04-16T15:48:38.649Z,6.80
2023-04-16T15:51:05.899Z,6.80
2023-04-16T15:53:33.807Z,6.80
2023-04-16T15:56:00.800Z,6.80
2023-04-16T15:58:27.765Z,6.80
2023-04-16T16:00:54.460Z,6.80
2023-04-16T16:03:21.697Z,6.80
2023-04-16T16:05:49.060Z,6.80
2023-04-16T16:08:16.550Z,6.80
2023-04-16T16:10:43.585Z,6.80
2023-04-16T16:13:13.175Z,6.80
2023-04-16T16:15:41.277Z,6.80
2023-04-16T16:18:08.254Z,6.80
2023-04-16T16:20:36.559Z,6.80
2023-04-16T16:23:03.542Z,6.80
2023-04-16T16:25:30.411Z,6.80
2023-04-16T16:27:58.715Z,6.80
2023-04-16T16:30:26.379Z,6.80
2023-04-16T16:32:56.372Z,6.80
2023-04-16T16:35:24.226Z,6.80
2023-04-16T16:37:55.388Z,6.80
2023-04-16T16:40:22.193Z,6.80
2023-04-16T16:42:48.988Z,6.80
2023-04-16T16:45:16.065Z,6.80
2023-04-16T16:47:42.823Z,6.80
2023-04-16T16:50:11.423Z,6.80
2023-04-16T16:52:38.897Z,6.80
2023-04-16T16:55:08.690Z,6.80
2023-04-16T16:57:35.446Z,6.80
2023-04-16T17:00:02.284Z,6.80
2023-04-16T17:02:29.161Z,6.80
2023-04-16T17:04:58.888Z,6.80
2023-04-16T17:07:25.750Z,6.80
2023-04-16T17:09:52.540Z,6.80
2023-04-16T17:12:19.317Z,6.80
2023-04-16T17:14:51.179Z,6.80
2023-04-16T17:17:21.999Z,6.80
2023-04-16T17:19:48.986Z,6.70
2023-04-16T17:22:16.268Z,7.70
2023-04-16T17:24:43.354Z,6.80
2023-04-16T17:27:10.108Z,6.80
2023-04-16T17:29:36.868Z,6.80
2023-04-16T17:32:04.497Z,6.80
2023-04-16T17:34:31.236Z,6.80
2023-04-16T17:36:58.024Z,6.80
2023-04-16T17:39:24.854Z,6.80
2023-04-16T17:41:54.658Z,6.80
2023-04-16T17:44:22.989Z,6.70
2023-04-16T17:46:49.759Z,6.70
2023-04-16T17:49:16.799Z,6.80
2023-04-16T17:51:44.538Z,6.80
2023-04-16T17:54:11.896Z,6.80
2023-04-16T17:56:38.819Z,6.80
2023-04-16T17:59:05.668Z,6.80
2023-04-16T18:01:32.451Z,6.80
2023-04-16T18:03:59.431Z,6.90
2023-04-16T18:06:27.608Z,6.90
2023-04-16T18:08:54.311Z,6.90
2023-04-16T18:11:21.149Z,6.90
2023-04-16T18:13:48.441Z,6.90
2023-04-16T18:16:18.510Z,6.90
2023-04-16T18:18:45.906Z,6.90
2023-04-16T18:21:13.271Z,6.90
2023-04-16T18:23:40.068Z,6.90
2023-04-16T18:26:08.506Z,6.90
2023-04-16T18:28:36.199Z,6.90
2023-04-16T18:31:05.524Z,7.00
2023-04-16T18:36:02.776Z,7.00
2023-04-16T18:38:31.257Z,7.00
2023-04-16T18:40:58.510Z,7.00
2023-04-16T18:43:25.418Z,7.00
2023-04-16T18:45:52.183Z,7.00
2023-04-16T18:48:18.952Z,7.00
2023-04-16T18:50:45.919Z,7.00
2023-04-16T18:53:12.832Z,7.00
2023-04-16T18:55:39.597Z,7.00
2023-04-16T18:58:06.330Z,7.00
2023-04-16T19:00:33.079Z,6.90
2023-04-16T19:03:00.081Z,7.00
2023-04-16T19:05:26.879Z,6.90
2023-04-16T19:07:54.229Z,7.00
2023-04-16T19:10:21.032Z,7.00
2023-04-16T19:12:47.814Z,6.90
2023-04-16T19:15:14.751Z,7.00
2023-04-16T19:17:42.077Z,6.90
2023-04-16T19:20:11.741Z,6.90
2023-04-16T19:22:38.628Z,6.90
2023-04-16T19:25:07.219Z,6.90
2023-04-16T19:27:34.147Z,6.90
2023-04-16T19:30:00.850Z,6.90
2023-04-16T19:32:27.597Z,6.90
2023-04-16T19:34:54.490Z,6.90
2023-04-16T19:37:21.173Z,6.90
2023-04-16T19:39:47.920Z,6.90
2023-04-16T19:42:14.690Z,6.90
2023-04-16T19:44:41.502Z,6.90
2023-04-16T19:47:08.402Z,6.90
2023-04-16T19:49:35.286Z,6.90
2023-04-16T19:52:02.169Z,6.90
2023-04-16T19:54:29.160Z,6.90
2023-04-16T19:56:57.026Z,6.90
2023-04-16T19:59:25.062Z,6.90
2023-04-16T20:01:51.780Z,6.90
2023-04-16T20:04:18.647Z,6.90
2023-04-16T20:06:45.544Z,6.90
2023-04-16T20:09:12.618Z,6.90
2023-04-16T20:11:39.558Z,6.90
2023-04-16T20:14:06.253Z,6.90
2023-04-16T20:16:33.707Z,6.90
2023-04-16T20:19:04.047Z,6.90
2023-04-16T20:21:32.235Z,6.90
2023-04-16T20:24:01.867Z,6.90
2023-04-16T20:26:33.943Z,6.90
2023-04-16T20:29:01.062Z,6.90
2023-04-16T20:31:28.182Z,6.90
2023-04-16T20:33:55.518Z,6.80
2023-04-16T20:36:22.327Z,6.90
2023-04-16T20:38:51.980Z,6.90
2023-04-16T20:41:22.687Z,6.90
2023-04-16T20:43:50.271Z,6.90
2023-04-16T20:46:17.661Z,6.80
2023-04-16T20:48:44.726Z,6.90
2023-04-16T20:51:11.555Z,6.90
2023-04-16T20:53:38.900Z,6.80
2023-04-16T20:56:06.888Z,6.90
2023-04-16T20:58:33.653Z,6.90
2023-04-16T21:01:00.711Z,6.90
2023-04-16T21:03:27.721Z,6.80
2023-04-16T21:05:55.788Z,6.80
2023-04-16T21:08:24.135Z,6.80
2023-04-16T21:10:51.284Z,6.80
2023-04-16T21:13:18.870Z,6.80
2023-04-16T21:15:46.187Z,6.80
2023-04-16T21:18:13.277Z,6.80
2023-04-16T21:20:40.153Z,6.80
2023-04-16T21:23:06.926Z,6.80
2023-04-16T21:25:33.767Z,6.80
2023-04-16T21:28:00.702Z,6.80
2023-04-16T21:30:27.502Z,6.80
2023-04-16T21:32:54.834Z,6.80
2023-04-16T21:35:21.674Z,6.90
2023-04-16T21:37:48.398Z,6.90
2023-04-16T21:40:15.204Z,6.90
2023-04-16T21:42:42.408Z,6.80
2023-04-16T21:45:10.381Z,6.90
2023-04-16T21:47:37.945Z,6.90
2023-04-16T21:50:05.796Z,6.90
2023-04-16T21:52:33.054Z,6.90
2023-04-16T21:55:02.884Z,6.90
2023-04-16T21:57:29.688Z,6.90
2023-04-16T21:59:56.417Z,6.90
2023-04-16T22:02:23.473Z,6.90
2023-04-16T22:04:50.549Z,6.90
2023-04-16T22:07:20.624Z,6.90
2023-04-16T22:09:47.357Z,6.80
2023-04-16T22:12:14.137Z,6.90
2023-04-16T22:14:49.159Z,6.90
2023-04-16T22:17:23.541Z,6.90
2023-04-16T22:19:50.825Z,6.90
2023-04-16T22:22:18.486Z,6.90
2023-04-16T22:24:46.289Z,6.90
2023-04-16T22:27:13.039Z,6.90
2023-04-16T22:29:39.746Z,6.90
2023-04-16T22:32:06.929Z,6.90
2023-04-16T22:34:33.798Z,6.90
2023-04-16T22:37:02.977Z,6.90
2023-04-16T22:39:31.540Z,6.90
2023-04-16T22:41:58.364Z,6.90
2023-04-16T22:44:25.235Z,6.90
2023-04-16T22:46:52.251Z,6.90
2023-04-16T22:49:19.144Z,6.90
2023-04-16T22:51:46.251Z,6.90
2023-04-16T22:54:14.050Z,6.90
2023-04-16T22:56:41.068Z,6.90
2023-04-16T22:59:08.048Z,6.90
2023-04-16T23:01:35.536Z,6.90
2023-04-16T23:04:02.513Z,6.90
2023-04-16T23:06:29.246Z,7.00
2023-04-16T23:08:55.960Z,7.00
2023-04-16T23:11:23.240Z,7.00
2023-04-16T23:13:50.008Z,7.00
2023-04-16T23:16:16.912Z,7.00
2023-04-16T23:18:43.654Z,7.00
2023-04-16T23:21:10.476Z,7.00
2023-04-16T23:23:37.228Z,7.00
2023-04-16T23:26:04.287Z,7.00
2023-04-16T23:28:31.038Z,7.00
2023-04-16T23:30:57.875Z,7.00
2023-04-16T23:33:24.668Z,7.00
2023-04-16T23:35:51.460Z,7.00
2023-04-16T23:38:18.358Z,6.90
2023-04-16T23:40:45.262Z,6.90
2023-04-16T23:43:12.051Z,6.90
2023-04-16T23:45:38.908Z,6.90
2023-04-16T23:48:06.228Z,6.90
2023-04-16T23:50:33.053Z,7.00
2023-04-16T23:52:59.812Z,7.00
2023-04-16T23:55:26.575Z,7.00
2023-04-16T23:57:53.376Z,7.00
